sensor_id;sensor_type;location;lat;lon;timestamp;temperature;humidity
44271;DHT22;29963;44.594;11.368;2022-07-23T00:01:31;29.00;83.60
44271;DHT22;29963;44.594;11.368;2022-07-23T00:03:57;29.10;84.50
44271;DHT22;29963;44.594;11.368;2022-07-23T00:06:23;29.00;84.10
44271;DHT22;29963;44.594;11.368;2022-07-23T00:08:49;29.10;62.20
44271;DHT22;29963;44.594;11.368;2022-07-23T00:11:15;28.90;82.20
44271;DHT22;29963;44.594;11.368;2022-07-23T00:13:40;29.10;79.60
44271;DHT22;29963;44.594;11.368;2022-07-23T00:16:09;29.40;62.60
44271;DHT22;29963;44.594;11.368;2022-07-23T00:18:35;29.40;62.80
44271;DHT22;29963;44.594;11.368;2022-07-23T00:21:00;30.10;85.70
44271;DHT22;29963;44.594;11.368;2022-07-23T00:23:26;29.50;62.90
44271;DHT22;29963;44.594;11.368;2022-07-23T00:25:54;29.60;83.60
44271;DHT22;29963;44.594;11.368;2022-07-23T00:28:21;29.40;63.10
44271;DHT22;29963;44.594;11.368;2022-07-23T00:30:46;29.60;83.20
44271;DHT22;29963;44.594;11.368;2022-07-23T00:33:13;29.30;87.00
44271;DHT22;29963;44.594;11.368;2022-07-23T00:35:40;28.80;84.80
44271;DHT22;29963;44.594;11.368;2022-07-23T00:38:10;28.90;85.90
44271;DHT22;29963;44.594;11.368;2022-07-23T00:40:37;28.70;88.40
44271;DHT22;29963;44.594;11.368;2022-07-23T00:43:04;28.80;87.20
44271;DHT22;29963;44.594;11.368;2022-07-23T00:45:30;28.90;66.10
44271;DHT22;29963;44.594;11.368;2022-07-23T00:47:56;28.60;66.20
44271;DHT22;29963;44.594;11.368;2022-07-23T00:50:22;28.60;87.50
44271;DHT22;29963;44.594;11.368;2022-07-23T00:52:47;28.20;88.60
44271;DHT22;29963;44.594;11.368;2022-07-23T00:55:13;28.30;67.20
44271;DHT22;29963;44.594;11.368;2022-07-23T00:57:40;28.40;68.00
44271;DHT22;29963;44.594;11.368;2022-07-23T01:00:09;28.40;89.50
44271;DHT22;29963;44.594;11.368;2022-07-23T01:02:36;28.00;90.70
44271;DHT22;29963;44.594;11.368;2022-07-23T01:05:02;28.40;91.00
44271;DHT22;29963;44.594;11.368;2022-07-23T01:07:29;28.20;71.70
44271;DHT22;29963;44.594;11.368;2022-07-23T01:09:55;28.30;93.10
44271;DHT22;29963;44.594;11.368;2022-07-23T01:12:21;27.70;93.80
44271;DHT22;29963;44.594;11.368;2022-07-23T01:14:58;27.70;94.80
44271;DHT22;29963;44.594;11.368;2022-07-23T01:17:24;27.50;97.40
44271;DHT22;29963;44.594;11.368;2022-07-23T01:19:50;27.60;97.70
44271;DHT22;29963;44.594;11.368;2022-07-23T01:22:18;27.70;98.20
44271;DHT22;29963;44.594;11.368;2022-07-23T01:24:44;27.80;86.30
44271;DHT22;29963;44.594;11.368;2022-07-23T01:29:38;27.70;99.90
44271;DHT22;29963;44.594;11.368;2022-07-23T01:32:04;27.60;98.70
44271;DHT22;29963;44.594;11.368;2022-07-23T01:36:56;27.60;88.40
44271;DHT22;29963;44.594;11.368;2022-07-23T01:39:22;27.40;90.20
44271;DHT22;29963;44.594;11.368;2022-07-23T01:44:13;27.30;90.40
44271;DHT22;29963;44.594;11.368;2022-07-23T01:46:39;27.10;99.90
44271;DHT22;29963;44.594;11.368;2022-07-23T01:49:05;27.20;99.90
44271;DHT22;29963;44.594;11.368;2022-07-23T01:51:30;27.50;90.80
44271;DHT22;29963;44.594;11.368;2022-07-23T01:53:56;27.30;90.30
44271;DHT22;29963;44.594;11.368;2022-07-23T01:56:22;27.50;90.80
44271;DHT22;29963;44.594;11.368;2022-07-23T01:58:48;27.10;91.00
44271;DHT22;29963;44.594;11.368;2022-07-23T02:01:14;27.20;91.20
44271;DHT22;29963;44.594;11.368;2022-07-23T02:03:40;27.20;91.00
44271;DHT22;29963;44.594;11.368;2022-07-23T02:06:06;27.50;91.20
44271;DHT22;29963;44.594;11.368;2022-07-23T02:08:31;27.10;91.30
44271;DHT22;29963;44.594;11.368;2022-07-23T02:10:57;27.20;91.40
44271;DHT22;29963;44.594;11.368;2022-07-23T02:13:22;27.10;91.70
44271;DHT22;29963;44.594;11.368;2022-07-23T02:15:48;27.00;91.80
44271;DHT22;29963;44.594;11.368;2022-07-23T02:18:14;27.00;99.90
44271;DHT22;29963;44.594;11.368;2022-07-23T02:20:40;27.10;92.20
44271;DHT22;29963;44.594;11.368;2022-07-23T02:23:09;26.90;92.10
44271;DHT22;29963;44.594;11.368;2022-07-23T02:25:34;26.70;99.90
44271;DHT22;29963;44.594;11.368;2022-07-23T02:28:00;26.80;99.90
44271;DHT22;29963;44.594;11.368;2022-07-23T02:30:26;26.90;93.50
44271;DHT22;29963;44.594;11.368;2022-07-23T02:32:51;26.90;93.50
44271;DHT22;29963;44.594;11.368;2022-07-23T02:35:17;26.90;93.50
44271;DHT22;29963;44.594;11.368;2022-07-23T02:37:45;27.10;93.40
44271;DHT22;29963;44.594;11.368;2022-07-23T02:40:11;27.70;93.80
44271;DHT22;29963;44.594;11.368;2022-07-23T02:42:37;27.00;93.70
44271;DHT22;29963;44.594;11.368;2022-07-23T02:45:03;27.10;93.70
44271;DHT22;29963;44.594;11.368;2022-07-23T02:47:29;26.90;93.60
44271;DHT22;29963;44.594;11.368;2022-07-23T02:49:54;26.90;93.70
44271;DHT22;29963;44.594;11.368;2022-07-23T02:52:20;27.10;93.70
44271;DHT22;29963;44.594;11.368;2022-07-23T02:54:46;27.20;93.70
44271;DHT22;29963;44.594;11.368;2022-07-23T02:57:12;26.90;93.60
44271;DHT22;29963;44.594;11.368;2022-07-23T02:59:37;27.00;93.70
44271;DHT22;29963;44.594;11.368;2022-07-23T03:02:03;26.80;93.70
44271;DHT22;29963;44.594;11.368;2022-07-23T03:04:31;26.80;93.70
44271;DHT22;29963;44.594;11.368;2022-07-23T03:06:56;26.80;94.20
44271;DHT22;29963;44.594;11.368;2022-07-23T03:09:22;26.70;93.90
44271;DHT22;29963;44.594;11.368;2022-07-23T03:11:48;26.60;94.00
44271;DHT22;29963;44.594;11.368;2022-07-23T03:14:13;26.60;94.00
44271;DHT22;29963;44.594;11.368;2022-07-23T03:16:41;26.50;93.90
44271;DHT22;29963;44.594;11.368;2022-07-23T03:19:07;26.80;94.10
44271;DHT22;29963;44.594;11.368;2022-07-23T03:21:33;26.60;94.10
44271;DHT22;29963;44.594;11.368;2022-07-23T03:24:00;26.80;94.00
44271;DHT22;29963;44.594;11.368;2022-07-23T03:26:25;26.40;94.10
44271;DHT22;29963;44.594;11.368;2022-07-23T03:28:51;26.40;99.90
44271;DHT22;29963;44.594;11.368;2022-07-23T03:31:17;26.50;94.30
44271;DHT22;29963;44.594;11.368;2022-07-23T03:33:43;26.40;94.10
44271;DHT22;29963;44.594;11.368;2022-07-23T03:36:09;26.40;94.00
44271;DHT22;29963;44.594;11.368;2022-07-23T03:38:35;26.60;94.30
44271;DHT22;29963;44.594;11.368;2022-07-23T03:41:00;26.50;94.00
44271;DHT22;29963;44.594;11.368;2022-07-23T03:43:26;26.40;94.20
44271;DHT22;29963;44.594;11.368;2022-07-23T03:45:52;26.40;94.30
44271;DHT22;29963;44.594;11.368;2022-07-23T03:48:17;26.60;94.30
44271;DHT22;29963;44.594;11.368;2022-07-23T03:50:43;26.10;99.90
44271;DHT22;29963;44.594;11.368;2022-07-23T03:53:09;26.40;99.90
44271;DHT22;29963;44.594;11.368;2022-07-23T03:55:34;26.20;99.90
44271;DHT22;29963;44.594;11.368;2022-07-23T03:58:00;26.10;99.90
44271;DHT22;29963;44.594;11.368;2022-07-23T04:02:52;26.50;99.90
44271;DHT22;29963;44.594;11.368;2022-07-23T04:05:18;26.60;99.90
44271;DHT22;29963;44.594;11.368;2022-07-23T04:07:43;26.30;94.00
44271;DHT22;29963;44.594;11.368;2022-07-23T04:10:09;26.10;99.90
44271;DHT22;29963;44.594;11.368;2022-07-23T04:12:35;26.30;94.50
44271;DHT22;29963;44.594;11.368;2022-07-23T04:15:01;26.50;99.90
44271;DHT22;29963;44.594;11.368;2022-07-23T04:17:27;26.00;99.90
44271;DHT22;29963;44.594;11.368;2022-07-23T04:19:53;26.70;99.90
44271;DHT22;29963;44.594;11.368;2022-07-23T04:22:19;26.10;99.90
44271;DHT22;29963;44.594;11.368;2022-07-23T04:24:45;26.40;94.50
44271;DHT22;29963;44.594;11.368;2022-07-23T04:27:10;26.10;94.40
44271;DHT22;29963;44.594;11.368;2022-07-23T04:29:36;26.20;94.10
44271;DHT22;29963;44.594;11.368;2022-07-23T04:32:02;26.50;99.90
44271;DHT22;29963;44.594;11.368;2022-07-23T04:34:28;26.00;94.20
44271;DHT22;29963;44.594;11.368;2022-07-23T04:36:54;26.60;94.30
44271;DHT22;29963;44.594;11.368;2022-07-23T04:39:19;26.40;99.90
44271;DHT22;29963;44.594;11.368;2022-07-23T04:41:45;26.30;99.90
44271;DHT22;29963;44.594;11.368;2022-07-23T04:44:11;26.40;94.00
44271;DHT22;29963;44.594;11.368;2022-07-23T04:46:37;26.30;93.30
44271;DHT22;29963;44.594;11.368;2022-07-23T04:49:02;26.50;99.90
44271;DHT22;29963;44.594;11.368;2022-07-23T04:51:28;26.70;93.60
44271;DHT22;29963;44.594;11.368;2022-07-23T04:53:54;26.60;93.50
44271;DHT22;29963;44.594;11.368;2022-07-23T04:56:20;26.70;93.50
44271;DHT22;29963;44.594;11.368;2022-07-23T04:58:46;26.50;99.90
44271;DHT22;29963;44.594;11.368;2022-07-23T05:01:11;26.70;99.90
44271;DHT22;29963;44.594;11.368;2022-07-23T05:03:37;26.50;93.30
44271;DHT22;29963;44.594;11.368;2022-07-23T05:06:03;26.50;99.90
44271;DHT22;29963;44.594;11.368;2022-07-23T05:08:29;26.60;99.90
44271;DHT22;29963;44.594;11.368;2022-07-23T05:13:21;26.60;99.90
44271;DHT22;29963;44.594;11.368;2022-07-23T05:15:47;26.80;99.90
44271;DHT22;29963;44.594;11.368;2022-07-23T05:18:12;26.90;99.90
44271;DHT22;29963;44.594;11.368;2022-07-23T05:20:38;26.90;99.90
44271;DHT22;29963;44.594;11.368;2022-07-23T05:23:04;26.80;99.90
44271;DHT22;29963;44.594;11.368;2022-07-23T05:25:30;26.30;94.80
44271;DHT22;29963;44.594;11.368;2022-07-23T05:27:56;27.00;99.90
44271;DHT22;29963;44.594;11.368;2022-07-23T05:30:21;27.30;99.90
44271;DHT22;29963;44.594;11.368;2022-07-23T05:32:47;27.00;99.90
44271;DHT22;29963;44.594;11.368;2022-07-23T05:35:14;27.40;99.90
44271;DHT22;29963;44.594;11.368;2022-07-23T05:37:40;26.80;93.40
44271;DHT22;29963;44.594;11.368;2022-07-23T05:40:08;27.60;99.90
44271;DHT22;29963;44.594;11.368;2022-07-23T05:42:38;27.60;99.90
44271;DHT22;29963;44.594;11.368;2022-07-23T05:45:04;27.60;99.90
44271;DHT22;29963;44.594;11.368;2022-07-23T05:47:59;27.70;99.90
44271;DHT22;29963;44.594;11.368;2022-07-23T05:55:17;27.90;99.90
44271;DHT22;29963;44.594;11.368;2022-07-23T05:57:42;27.90;99.90
44271;DHT22;29963;44.594;11.368;2022-07-23T06:00:09;28.20;99.90
44271;DHT22;29963;44.594;11.368;2022-07-23T06:02:37;28.10;99.90
44271;DHT22;29963;44.594;11.368;2022-07-23T06:05:03;28.40;99.90
44271;DHT22;29963;44.594;11.368;2022-07-23T06:07:28;28.50;99.90
44271;DHT22;29963;44.594;11.368;2022-07-23T06:12:20;28.90;91.80
44271;DHT22;29963;44.594;11.368;2022-07-23T06:14:46;28.80;99.90
44271;DHT22;29963;44.594;11.368;2022-07-23T06:17:13;28.50;99.90
44271;DHT22;29963;44.594;11.368;2022-07-23T06:19:39;28.50;99.90
44271;DHT22;29963;44.594;11.368;2022-07-23T06:22:05;28.90;99.90
44271;DHT22;29963;44.594;11.368;2022-07-23T06:26:56;29.20;99.90
44271;DHT22;29963;44.594;11.368;2022-07-23T06:29:22;28.90;99.90
44271;DHT22;29963;44.594;11.368;2022-07-23T06:31:48;29.10;99.90
44271;DHT22;29963;44.594;11.368;2022-07-23T06:34:13;29.10;99.90
44271;DHT22;29963;44.594;11.368;2022-07-23T06:36:39;29.20;99.90
44271;DHT22;29963;44.594;11.368;2022-07-23T06:39:05;29.30;99.90
44271;DHT22;29963;44.594;11.368;2022-07-23T06:41:30;29.60;99.90
44271;DHT22;29963;44.594;11.368;2022-07-23T06:43:56;29.50;99.90
44271;DHT22;29963;44.594;11.368;2022-07-23T06:46:21;30.10;99.90
44271;DHT22;29963;44.594;11.368;2022-07-23T06:48:47;30.00;89.80
44271;DHT22;29963;44.594;11.368;2022-07-23T06:51:13;29.80;84.10
44271;DHT22;29963;44.594;11.368;2022-07-23T06:56:05;30.00;99.30
44271;DHT22;29963;44.594;11.368;2022-07-23T06:58:30;30.50;98.90
44271;DHT22;29963;44.594;11.368;2022-07-23T07:00:56;30.30;96.60
44271;DHT22;29963;44.594;11.368;2022-07-23T07:03:22;30.40;78.50
44271;DHT22;29963;44.594;11.368;2022-07-23T07:05:48;30.50;78.60
44271;DHT22;29963;44.594;11.368;2022-07-23T07:08:15;30.50;93.00
44271;DHT22;29963;44.594;11.368;2022-07-23T07:10:40;30.50;72.00
44271;DHT22;29963;44.594;11.368;2022-07-23T07:13:09;30.50;63.60
44271;DHT22;29963;44.594;11.368;2022-07-23T07:15:35;30.80;63.70
44271;DHT22;29963;44.594;11.368;2022-07-23T07:18:01;30.90;66.50
44271;DHT22;29963;44.594;11.368;2022-07-23T07:20:26;30.60;65.20
44271;DHT22;29963;44.594;11.368;2022-07-23T07:22:52;30.80;65.50
44271;DHT22;29963;44.594;11.368;2022-07-23T07:25:18;30.90;64.40
44271;DHT22;29963;44.594;11.368;2022-07-23T07:27:44;31.10;90.40
44271;DHT22;29963;44.594;11.368;2022-07-23T07:30:10;31.20;65.10
44271;DHT22;29963;44.594;11.368;2022-07-23T07:32:39;31.30;65.70
44271;DHT22;29963;44.594;11.368;2022-07-23T07:35:06;31.50;68.50
44271;DHT22;29963;44.594;11.368;2022-07-23T07:37:32;31.50;65.50
44271;DHT22;29963;44.594;11.368;2022-07-23T07:39:58;31.50;60.50
44271;DHT22;29963;44.594;11.368;2022-07-23T07:42:24;31.50;61.90
44271;DHT22;29963;44.594;11.368;2022-07-23T07:44:49;31.60;61.60
44271;DHT22;29963;44.594;11.368;2022-07-23T07:47:15;31.80;63.00
44271;DHT22;29963;44.594;11.368;2022-07-23T07:49:42;31.60;63.40
44271;DHT22;29963;44.594;11.368;2022-07-23T07:52:08;31.70;64.30
44271;DHT22;29963;44.594;11.368;2022-07-23T07:54:33;31.80;60.40
44271;DHT22;29963;44.594;11.368;2022-07-23T07:56:59;32.20;62.80
44271;DHT22;29963;44.594;11.368;2022-07-23T07:59:25;32.00;63.90
44271;DHT22;29963;44.594;11.368;2022-07-23T08:01:51;31.80;64.90
44271;DHT22;29963;44.594;11.368;2022-07-23T08:04:16;31.80;65.20
44271;DHT22;29963;44.594;11.368;2022-07-23T08:06:42;32.00;90.00
44271;DHT22;29963;44.594;11.368;2022-07-23T08:09:08;32.10;65.40
44271;DHT22;29963;44.594;11.368;2022-07-23T08:11:34;32.30;65.40
44271;DHT22;29963;44.594;11.368;2022-07-23T08:13:59;32.30;62.00
44271;DHT22;29963;44.594;11.368;2022-07-23T08:16:25;32.20;58.50
44271;DHT22;29963;44.594;11.368;2022-07-23T08:18:51;32.20;58.00
44271;DHT22;29963;44.594;11.368;2022-07-23T08:21:16;32.50;57.30
44271;DHT22;29963;44.594;11.368;2022-07-23T08:23:42;32.60;55.70
44271;DHT22;29963;44.594;11.368;2022-07-23T08:26:07;32.50;55.70
44271;DHT22;29963;44.594;11.368;2022-07-23T08:28:33;32.80;56.00
44271;DHT22;29963;44.594;11.368;2022-07-23T08:31:00;32.70;56.00
44271;DHT22;29963;44.594;11.368;2022-07-23T08:33:26;32.90;56.00
44271;DHT22;29963;44.594;11.368;2022-07-23T08:35:52;32.80;54.80
44271;DHT22;29963;44.594;11.368;2022-07-23T08:38:22;32.70;53.90
44271;DHT22;29963;44.594;11.368;2022-07-23T08:40:50;32.90;53.70
44271;DHT22;29963;44.594;11.368;2022-07-23T08:43:24;32.70;54.10
44271;DHT22;29963;44.594;11.368;2022-07-23T08:45:52;32.90;51.80
44271;DHT22;29963;44.594;11.368;2022-07-23T08:48:21;33.00;52.00
44271;DHT22;29963;44.594;11.368;2022-07-23T08:50:54;32.90;52.30
44271;DHT22;29963;44.594;11.368;2022-07-23T08:53:21;32.90;55.20
44271;DHT22;29963;44.594;11.368;2022-07-23T08:55:53;32.90;52.70
44271;DHT22;29963;44.594;11.368;2022-07-23T08:58:20;33.10;79.20
44271;DHT22;29963;44.594;11.368;2022-07-23T09:00:46;33.00;52.60
44271;DHT22;29963;44.594;11.368;2022-07-23T09:03:18;32.90;52.90
44271;DHT22;29963;44.594;11.368;2022-07-23T09:05:44;32.80;52.50
44271;DHT22;29963;44.594;11.368;2022-07-23T09:08:17;32.80;52.30
44271;DHT22;29963;44.594;11.368;2022-07-23T09:13:40;33.30;51.80
44271;DHT22;29963;44.594;11.368;2022-07-23T09:18:47;33.30;50.00
44271;DHT22;29963;44.594;11.368;2022-07-23T09:21:24;33.30;50.40
44271;DHT22;29963;44.594;11.368;2022-07-23T09:23:53;33.40;51.00
44271;DHT22;29963;44.594;11.368;2022-07-23T09:29:12;33.80;85.20
44271;DHT22;29963;44.594;11.368;2022-07-23T09:32:02;33.40;52.40
44271;DHT22;29963;44.594;11.368;2022-07-23T09:34:35;33.60;81.60
44271;DHT22;29963;44.594;11.368;2022-07-23T09:39:35;33.70;80.20
44271;DHT22;29963;44.594;11.368;2022-07-23T09:42:22;34.10;55.10
44271;DHT22;29963;44.594;11.368;2022-07-23T09:44:53;33.80;58.80
44271;DHT22;29963;44.594;11.368;2022-07-23T09:47:19;33.90;50.70
44271;DHT22;29963;44.594;11.368;2022-07-23T09:50:06;33.90;49.00
44271;DHT22;29963;44.594;11.368;2022-07-23T09:52:46;34.00;52.00
44271;DHT22;29963;44.594;11.368;2022-07-23T09:55:14;33.90;83.20
44271;DHT22;29963;44.594;11.368;2022-07-23T09:57:44;34.00;55.60
44271;DHT22;29963;44.594;11.368;2022-07-23T10:00:11;34.50;82.60
44271;DHT22;29963;44.594;11.368;2022-07-23T10:02:38;35.10;82.40
44271;DHT22;29963;44.594;11.368;2022-07-23T10:05:05;34.00;82.30
44271;DHT22;29963;44.594;11.368;2022-07-23T10:07:37;34.50;48.70
44271;DHT22;29963;44.594;11.368;2022-07-23T10:10:05;35.00;81.30
44271;DHT22;29963;44.594;11.368;2022-07-23T10:12:32;34.30;80.50
44271;DHT22;29963;44.594;11.368;2022-07-23T10:15:13;34.20;81.00
44271;DHT22;29963;44.594;11.368;2022-07-23T10:17:38;35.00;83.00
44271;DHT22;29963;44.594;11.368;2022-07-23T10:20:05;34.10;82.20
44271;DHT22;29963;44.594;11.368;2022-07-23T10:22:37;34.40;83.50
44271;DHT22;29963;44.594;11.368;2022-07-23T10:28:13;34.50;48.00
44271;DHT22;29963;44.594;11.368;2022-07-23T10:37:12;34.20;82.60
44271;DHT22;29963;44.594;11.368;2022-07-23T10:39:18;34.60;83.20
44271;DHT22;29963;44.594;11.368;2022-07-23T10:41:44;34.60;84.20
44271;DHT22;29963;44.594;11.368;2022-07-23T10:44:21;35.10;84.00
44271;DHT22;29963;44.594;11.368;2022-07-23T10:49:29;35.20;83.90
44271;DHT22;29963;44.594;11.368;2022-07-23T10:54:56;35.40;83.80
44271;DHT22;29963;44.594;11.368;2022-07-23T10:57:27;35.20;47.90
44271;DHT22;29963;44.594;11.368;2022-07-23T11:02:33;35.10;82.80
44271;DHT22;29963;44.594;11.368;2022-07-23T11:05:01;34.80;82.40
44271;DHT22;29963;44.594;11.368;2022-07-23T11:09:55;35.30;81.30
44271;DHT22;29963;44.594;11.368;2022-07-23T11:15:14;35.50;50.80
44271;DHT22;29963;44.594;11.368;2022-07-23T11:25:11;35.60;46.00
44271;DHT22;29963;44.594;11.368;2022-07-23T11:27:44;35.60;45.90
44271;DHT22;29963;44.594;11.368;2022-07-23T11:35:35;35.70;83.20
44271;DHT22;29963;44.594;11.368;2022-07-23T11:38:12;35.80;64.90
44271;DHT22;29963;44.594;11.368;2022-07-23T11:40:39;36.10;84.40
44271;DHT22;29963;44.594;11.368;2022-07-23T11:43:07;36.20;84.00
44271;DHT22;29963;44.594;11.368;2022-07-23T11:45:47;36.60;81.00
44271;DHT22;29963;44.594;11.368;2022-07-23T11:48:21;36.20;82.40
44271;DHT22;29963;44.594;11.368;2022-07-23T11:50:48;36.20;50.60
44271;DHT22;29963;44.594;11.368;2022-07-23T11:53:21;36.30;81.20
44271;DHT22;29963;44.594;11.368;2022-07-23T11:55:47;36.40;82.00
44271;DHT22;29963;44.594;11.368;2022-07-23T11:58:13;35.90;81.10
44271;DHT22;29963;44.594;11.368;2022-07-23T12:00:40;36.00;80.40
44271;DHT22;29963;44.594;11.368;2022-07-23T12:05:35;35.80;68.50
44271;DHT22;29963;44.594;11.368;2022-07-23T12:08:03;36.70;81.10
44271;DHT22;29963;44.594;11.368;2022-07-23T12:13:21;36.80;79.90
44271;DHT22;29963;44.594;11.368;2022-07-23T12:15:52;36.40;78.60
44271;DHT22;29963;44.594;11.368;2022-07-23T12:18:23;35.90;78.50
44271;DHT22;29963;44.594;11.368;2022-07-23T12:20:51;36.00;66.30
44271;DHT22;29963;44.594;11.368;2022-07-23T12:23:19;35.90;75.70
44271;DHT22;29963;44.594;11.368;2022-07-23T12:25:46;36.20;50.70
44271;DHT22;29963;44.594;11.368;2022-07-23T12:28:27;35.80;77.50
44271;DHT22;29963;44.594;11.368;2022-07-23T12:30:54;36.30;48.50
44271;DHT22;29963;44.594;11.368;2022-07-23T12:33:31;36.30;50.00
44271;DHT22;29963;44.594;11.368;2022-07-23T12:35:59;36.40;44.60
44271;DHT22;29963;44.594;11.368;2022-07-23T12:38:27;36.50;45.60
44271;DHT22;29963;44.594;11.368;2022-07-23T12:40:57;36.60;45.80
44271;DHT22;29963;44.594;11.368;2022-07-23T12:43:32;36.70;45.00
44271;DHT22;29963;44.594;11.368;2022-07-23T12:46:09;36.70;44.70
44271;DHT22;29963;44.594;11.368;2022-07-23T12:48:56;36.80;44.70
44271;DHT22;29963;44.594;11.368;2022-07-23T12:51:27;36.80;44.00
44271;DHT22;29963;44.594;11.368;2022-07-23T12:54:06;36.80;44.10
44271;DHT22;29963;44.594;11.368;2022-07-23T12:56:37;36.90;45.00
44271;DHT22;29963;44.594;11.368;2022-07-23T13:01:31;37.10;44.10
44271;DHT22;29963;44.594;11.368;2022-07-23T13:06:26;37.10;44.90
44271;DHT22;29963;44.594;11.368;2022-07-23T13:08:53;37.20;45.30
44271;DHT22;29963;44.594;11.368;2022-07-23T13:11:18;37.30;45.20
44271;DHT22;29963;44.594;11.368;2022-07-23T13:13:44;37.40;45.30
44271;DHT22;29963;44.594;11.368;2022-07-23T13:16:10;37.50;45.00
44271;DHT22;29963;44.594;11.368;2022-07-23T13:18:35;37.60;44.80
44271;DHT22;29963;44.594;11.368;2022-07-23T13:21:02;37.70;83.60
44271;DHT22;29963;44.594;11.368;2022-07-23T13:23:28;37.70;83.80
44271;DHT22;29963;44.594;11.368;2022-07-23T13:25:54;38.00;65.50
44271;DHT22;29963;44.594;11.368;2022-07-23T13:28:20;37.90;84.20
44271;DHT22;29963;44.594;11.368;2022-07-23T13:33:16;38.10;84.20
44271;DHT22;29963;44.594;11.368;2022-07-23T13:38:12;37.70;84.00
44271;DHT22;29963;44.594;11.368;2022-07-23T13:40:40;37.90;84.10
44271;DHT22;29963;44.594;11.368;2022-07-23T13:43:08;38.80;47.10
44271;DHT22;29963;44.594;11.368;2022-07-23T13:45:34;38.40;48.00
44271;DHT22;29963;44.594;11.368;2022-07-23T13:48:00;37.80;55.70
44271;DHT22;29963;44.594;11.368;2022-07-23T13:50:26;38.30;48.80
44271;DHT22;29963;44.594;11.368;2022-07-23T13:52:52;38.30;42.40
44271;DHT22;29963;44.594;11.368;2022-07-23T13:55:18;38.40;42.20
44271;DHT22;29963;44.594;11.368;2022-07-23T13:57:44;38.50;43.10
44271;DHT22;29963;44.594;11.368;2022-07-23T14:00:10;38.60;43.00
44271;DHT22;29963;44.594;11.368;2022-07-23T14:02:38;38.70;42.60
44271;DHT22;29963;44.594;11.368;2022-07-23T14:05:06;38.90;43.50
44271;DHT22;29963;44.594;11.368;2022-07-23T14:07:33;39.10;43.50
44271;DHT22;29963;44.594;11.368;2022-07-23T14:09:58;39.30;42.60
44271;DHT22;29963;44.594;11.368;2022-07-23T14:12:25;39.40;42.90
44271;DHT22;29963;44.594;11.368;2022-07-23T14:14:50;39.50;42.80
44271;DHT22;29963;44.594;11.368;2022-07-23T14:17:16;39.70;43.30
44271;DHT22;29963;44.594;11.368;2022-07-23T14:19:42;39.90;42.90
44271;DHT22;29963;44.594;11.368;2022-07-23T14:22:08;40.00;41.70
44271;DHT22;29963;44.594;11.368;2022-07-23T14:24:33;40.20;42.20
44271;DHT22;29963;44.594;11.368;2022-07-23T14:27:00;40.30;42.00
44271;DHT22;29963;44.594;11.368;2022-07-23T14:29:27;40.40;41.80
44271;DHT22;29963;44.594;11.368;2022-07-23T14:31:52;40.50;41.80
44271;DHT22;29963;44.594;11.368;2022-07-23T14:34:18;40.70;41.60
44271;DHT22;29963;44.594;11.368;2022-07-23T14:36:44;40.80;41.20
44271;DHT22;29963;44.594;11.368;2022-07-23T14:39:10;40.90;41.00
44271;DHT22;29963;44.594;11.368;2022-07-23T14:41:37;41.00;41.40
44271;DHT22;29963;44.594;11.368;2022-07-23T14:44:03;41.10;41.10
44271;DHT22;29963;44.594;11.368;2022-07-23T14:46:29;41.20;40.70
44271;DHT22;29963;44.594;11.368;2022-07-23T14:48:55;41.40;40.40
44271;DHT22;29963;44.594;11.368;2022-07-23T14:51:21;41.50;39.50
44271;DHT22;29963;44.594;11.368;2022-07-23T14:53:46;41.50;39.70
44271;DHT22;29963;44.594;11.368;2022-07-23T14:56:12;41.70;40.00
44271;DHT22;29963;44.594;11.368;2022-07-23T14:58:39;41.80;39.20
44271;DHT22;29963;44.594;11.368;2022-07-23T15:49:49;44.90;66.50
44271;DHT22;29963;44.594;11.368;2022-07-23T15:52:14;44.70;78.70
44271;DHT22;29963;44.594;11.368;2022-07-23T15:54:40;45.50;76.60
44271;DHT22;29963;44.594;11.368;2022-07-23T15:57:06;46.10;49.40
44271;DHT22;29963;44.594;11.368;2022-07-23T16:01:58;46.60;73.20
44271;DHT22;29963;44.594;11.368;2022-07-23T16:04:24;46.90;73.90
44271;DHT22;29963;44.594;11.368;2022-07-23T16:11:43;47.30;78.70
44271;DHT22;29963;44.594;11.368;2022-07-23T16:14:08;47.20;78.70
44271;DHT22;29963;44.594;11.368;2022-07-23T16:19:01;47.50;74.90
44271;DHT22;29963;44.594;11.368;2022-07-23T16:28:46;47.80;73.80
44271;DHT22;29963;44.594;11.368;2022-07-23T16:33:39;47.60;39.00
44271;DHT22;29963;44.594;11.368;2022-07-23T16:36:06;47.10;73.50
44271;DHT22;29963;44.594;11.368;2022-07-23T16:38:36;47.40;36.50
44271;DHT22;29963;44.594;11.368;2022-07-23T16:41:02;47.30;38.40
44271;DHT22;29963;44.594;11.368;2022-07-23T16:48:23;46.20;70.30
44271;DHT22;29963;44.594;11.368;2022-07-23T16:50:49;45.90;71.20
44271;DHT22;29963;44.594;11.368;2022-07-23T16:53:15;45.30;48.10
44271;DHT22;29963;44.594;11.368;2022-07-23T16:55:40;45.40;41.70
44271;DHT22;29963;44.594;11.368;2022-07-23T16:58:06;44.30;72.50
44271;DHT22;29963;44.594;11.368;2022-07-23T17:02:58;44.40;43.90
44271;DHT22;29963;44.594;11.368;2022-07-23T17:07:50;44.40;80.10
44271;DHT22;29963;44.594;11.368;2022-07-23T17:17:37;43.20;83.40
44271;DHT22;29963;44.594;11.368;2022-07-23T17:20:04;43.10;49.70
44271;DHT22;29963;44.594;11.368;2022-07-23T17:22:31;42.70;87.40
44271;DHT22;29963;44.594;11.368;2022-07-23T17:29:48;41.60;90.70
44271;DHT22;29963;44.594;11.368;2022-07-23T17:34:40;40.80;92.80
44271;DHT22;29963;44.594;11.368;2022-07-23T17:39:35;40.30;94.20
44271;DHT22;29963;44.594;11.368;2022-07-23T17:46:53;39.90;94.40
44271;DHT22;29963;44.594;11.368;2022-07-23T17:49:18;40.10;95.20
44271;DHT22;29963;44.594;11.368;2022-07-23T17:51:44;39.70;70.10
44271;DHT22;29963;44.594;11.368;2022-07-23T17:56:40;40.40;72.10
44271;DHT22;29963;44.594;11.368;2022-07-23T17:59:05;40.60;94.90
44271;DHT22;29963;44.594;11.368;2022-07-23T18:04:00;40.70;95.10
44271;DHT22;29963;44.594;11.368;2022-07-23T18:06:26;40.60;94.70
44271;DHT22;29963;44.594;11.368;2022-07-23T18:11:19;40.70;94.70
44271;DHT22;29963;44.594;11.368;2022-07-23T18:21:04;40.10;95.90
44271;DHT22;29963;44.594;11.368;2022-07-23T18:23:30;39.30;63.60
44271;DHT22;29963;44.594;11.368;2022-07-23T18:30:50;39.00;66.60
44271;DHT22;29963;44.594;11.368;2022-07-23T18:40:36;38.10;67.30
44271;DHT22;29963;44.594;11.368;2022-07-23T18:50:26;37.60;73.60
44271;DHT22;29963;44.594;11.368;2022-07-23T18:52:51;37.70;98.60
44271;DHT22;29963;44.594;11.368;2022-07-23T18:57:45;37.60;97.40